| time (UTC) | temp F | wind direction | speed knots | gust knots | rain 1hr in | rain 24hr in | rain mn in | humidity % | barometer mb |
| 20260505152408 | 49 | 249 | 3.5 | 7.0 | 0.00 | 0.00 | 0.00 | 44 | 1003.5 |
| 20260505151907 | 48 | 317 | 6.1 | 8.7 | 0.00 | 0.00 | 0.00 | 44 | 1003.5 |
| 20260505151404 | 49 | 309 | 6.1 | 11.3 | 0.00 | 0.00 | 0.00 | 42 | 1003.7 |
| 20260505150901 | 49 | 33 | 5.2 | 9.6 | 0.00 | 0.00 | 0.00 | 43 | 1003.6 |
| 20260505150359 | 48 | 321 | 2.6 | 7.8 | 0.00 | 0.00 | 0.00 | 45 | 1003.5 |
| 20260505140328 | 46 | 261 | 5.2 | 8.7 | 0.00 | 0.00 | 0.00 | 50 | 1003.6 |
| 20260505130252 | 44 | 345 | 3.5 | 6.1 | 0.00 | 0.00 | 0.00 | 55 | 1002.7 |
| 20260505124742 | 43 | 253 | 4.3 | 7.0 | 0.00 | 0.00 | 0.00 | 56 | 1002.6 |
| 20260505124239 | 43 | 258 | 1.7 | 3.5 | 0.00 | 0.00 | 0.00 | 58 | 1002.8 |
| 20260505123735 | 42 | 251 | 4.3 | 5.2 | 0.00 | 0.00 | 0.00 | 58 | 1002.8 |
| 20260505123232 | 42 | 294 | 2.6 | 3.5 | 0.00 | 0.00 | 0.00 | 59 | 1002.8 |
| 20260505122728 | 42 | 336 | 0.9 | 2.6 | 0.00 | 0.00 | 0.00 | 60 | 1002.6 |
| 20260505122225 | 42 | 114 | 1.7 | 2.6 | 0.00 | 0.00 | 0.00 | 60 | 1002.7 |
| 20260505121722 | 42 | 227 | 0.9 | 1.7 | 0.00 | 0.00 | 0.00 | 60 | 1002.9 |
| 20260505121219 | 42 | 314 | 1.7 | 5.2 | 0.00 | 0.00 | 0.00 | 61 | 1002.8 |
| 20260505120715 | 42 | 352 | 0.9 | 1.7 | 0.00 | 0.00 | 0.00 | 61 | 1002.8 |
| 20260505120211 | 42 | 267 | 1.7 | 2.6 | 0.00 | 0.00 | 0.00 | 62 | 1002.5 |
| 20260505115704 | 42 | 6 | 0.9 | 1.7 | 0.00 | 0.00 | 0.00 | 62 | 1002.6 |
| 20260505115203 | 41 | 264 | 2.6 | 3.5 | 0.00 | 0.00 | 0.00 | 62 | 1002.5 |
| 20260505114700 | 41 | 273 | 1.7 | 2.6 | 0.00 | 0.00 | 0.00 | 62 | 1002.5 |
| 20260505114155 | 41 | 341 | 0.9 | 1.7 | 0.00 | 0.00 | 0.00 | 63 | 1002.5 |
| 20260505113652 | 41 | 345 | 0.9 | 2.6 | 0.00 | 0.00 | 0.00 | 63 | 1002.3 |
| 20260505113149 | 41 | 30 | 0.9 | 1.7 | 0.00 | 0.00 | 0.00 | 63 | 1002.4 |
| 20260505112646 | 41 | 297 | 1.7 | 1.7 | 0.00 | 0.00 | 0.00 | 62 | 1002.3 |
| 20260505112144 | 41 | 275 | 2.6 | 3.5 | 0.00 | 0.00 | 0.00 | 62 | 1002.5 |
| 20260505111643 | 41 | 351 | 1.7 | 3.5 | 0.00 | 0.00 | 0.00 | 62 | 1002.1 |
| 20260505111139 | 41 | 22 | 2.6 | 3.5 | 0.00 | 0.00 | 0.00 | 62 | 1002.2 |
| 20260505110635 | 41 | 313 | 2.6 | 2.6 | 0.00 | 0.00 | 0.00 | 62 | 1002.3 |
| 20260505110132 | 41 | 258 | 1.7 | 3.5 | 0.00 | 0.00 | 0.00 | 62 | 1002.0 |
| 20260505102108 | 41 | 218 | 1.7 | 2.6 | 0.00 | 0.00 | 0.00 | 62 | 1001.5 |
| 20260505101607 | 41 | 267 | 1.7 | 3.5 | 0.00 | 0.00 | 0.00 | 62 | 1001.5 |
| 20260505101103 | 41 | 322 | 2.6 | 5.2 | 0.00 | 0.00 | 0.00 | 62 | 1001.5 |
| 20260505100559 | 41 | 187 | 2.6 | 3.5 | 0.00 | 0.00 | 0.00 | 62 | 1001.4 |
| 20260505100056 | 41 | 0 | 0.9 | 3.5 | 0.00 | 0.00 | 0.00 | 62 | 1001.2 |
| 20260505095552 | 41 | 306 | 2.6 | 5.2 | 0.00 | 0.00 | 0.00 | 61 | 1001.0 |
| 20260505095049 | 41 | 308 | 1.7 | 3.5 | 0.00 | 0.00 | 0.00 | 61 | 1000.9 |
| 20260505094545 | 42 | 348 | 1.7 | 2.6 | 0.00 | 0.00 | 0.00 | 61 | 1001.0 |
| 20260505094041 | 42 | 0 | 1.7 | 2.6 | 0.00 | 0.00 | 0.00 | 61 | 1000.9 |
| 20260505093538 | 42 | 327 | 1.7 | 2.6 | 0.00 | 0.00 | 0.00 | 60 | 1000.9 |
| 20260505093036 | 42 | 18 | 0.0 | 0.0 | 0.00 | 0.00 | 0.00 | 61 | 1001.0 |
| 20260505092533 | 42 | 263 | 1.7 | 2.6 | 0.00 | 0.00 | 0.00 | 60 | 1000.9 |
| 20260505092031 | 42 | 355 | 0.9 | 1.7 | 0.00 | 0.00 | 0.00 | 60 | 1000.9 |
| 20260505091527 | 42 | 347 | 0.0 | 1.7 | 0.00 | 0.00 | 0.00 | 60 | 1000.8 |
| 20260505091027 | 42 | 294 | 1.7 | 2.6 | 0.00 | 0.00 | 0.00 | 59 | 1000.8 |
| 20260505090524 | 42 | 42 | 2.6 | 3.5 | 0.00 | 0.00 | 0.00 | 59 | 1000.7 |
| 20260505090021 | 42 | 246 | 1.7 | 2.6 | 0.00 | 0.00 | 0.00 | 59 | 1000.7 |
| 20260505085519 | 42 | 270 | 1.7 | 2.6 | 0.00 | 0.00 | 0.00 | 60 | 1000.5 |
| 20260505085017 | 42 | 340 | 1.7 | 3.5 | 0.00 | 0.00 | 0.00 | 60 | 1000.4 |
| 20260505084515 | 42 | 359 | 0.9 | 1.7 | 0.00 | 0.00 | 0.00 | 60 | 1000.5 |
| 20260505084013 | 42 | 314 | 2.6 | 5.2 | 0.00 | 0.00 | 0.00 | 59 | 1000.4 |
| 20260505083509 | 42 | 311 | 1.7 | 3.5 | 0.00 | 0.00 | 0.00 | 59 | 1000.6 |
| 20260505083006 | 42 | 24 | 1.7 | 2.6 | 0.00 | 0.00 | 0.00 | 59 | 1000.5 |
| 20260505082502 | 42 | 353 | 1.7 | 3.5 | 0.00 | 0.00 | 0.00 | 58 | 1000.2 |
| 20260505081959 | 42 | 350 | 0.9 | 2.6 | 0.00 | 0.00 | 0.00 | 59 | 1000.4 |
| 20260505081456 | 42 | 319 | 1.7 | 2.6 | 0.00 | 0.00 | 0.00 | 58 | 1000.1 |
| 20260505080952 | 42 | 273 | 1.7 | 2.6 | 0.00 | 0.00 | 0.00 | 58 | 1000.3 |
| 20260505080448 | 42 | 302 | 1.7 | 2.6 | 0.00 | 0.00 | 0.00 | 57 | 1000.4 |
| 20260505075944 | 42 | 296 | 2.6 | 2.6 | 0.00 | 0.00 | 0.00 | 57 | 1000.2 |
| 20260505075440 | 42 | 344 | 1.7 | 2.6 | 0.00 | 0.00 | 0.00 | 57 | 1000.3 |
| 20260505074938 | 42 | 280 | 1.7 | 2.6 | 0.00 | 0.00 | 0.00 | 57 | 1000.1 |
| 20260505074436 | 42 | 44 | 0.9 | 3.5 | 0.00 | 0.00 | 0.00 | 57 | 1000.1 |
| 20260505073932 | 43 | 318 | 1.7 | 3.5 | 0.00 | 0.00 | 0.00 | 56 | 1000.1 |
| 20260505073430 | 43 | 345 | 2.6 | 2.6 | 0.00 | 0.00 | 0.00 | 56 | 1000.4 |
| 20260505072927 | 43 | 26 | 0.9 | 1.7 | 0.00 | 0.00 | 0.00 | 56 | 1000.1 |
| 20260505072423 | 44 | 346 | 1.7 | 1.7 | 0.00 | 0.00 | 0.00 | 55 | 1000.2 |
| 20260505071920 | 44 | 277 | 1.7 | 6.1 | 0.00 | 0.00 | 0.00 | 54 | 1000.1 |
| 20260505071415 | 44 | 50 | 2.6 | 3.5 | 0.00 | 0.00 | 0.00 | 54 | 1000.2 |
| 20260505070914 | 44 | 324 | 2.6 | 3.5 | 0.00 | 0.00 | 0.00 | 54 | 1000.0 |
| 20260505070410 | 44 | 300 | 2.6 | 2.6 | 0.00 | 0.00 | 0.00 | 53 | 1000.0 |
| 20260505065906 | 45 | 36 | 1.7 | 3.5 | 0.00 | 0.00 | 0.00 | 53 | 1000.1 |
| 20260505065402 | 44 | 321 | 2.6 | 5.2 | 0.00 | 0.00 | 0.00 | 55 | 1000.0 |
| 20260505064859 | 44 | 42 | 0.0 | 1.7 | 0.00 | 0.00 | 0.00 | 55 | 1000.1 |
| 20260505064356 | 44 | 359 | 2.6 | 3.5 | 0.00 | 0.00 | 0.00 | 54 | 1000.1 |
| 20260505063855 | 43 | 307 | 3.5 | 5.2 | 0.00 | 0.00 | 0.00 | 55 | 1000.1 |
| 20260505063355 | 43 | 330 | 1.7 | 2.6 | 0.00 | 0.00 | 0.00 | 55 | 1000.1 |
| 20260505062852 | 43 | 227 | 2.6 | 3.5 | 0.00 | 0.00 | 0.00 | 55 | 1000.0 |
| 20260505062350 | 44 | 340 | 1.7 | 6.1 | 0.00 | 0.00 | 0.00 | 55 | 1000.1 |
| 20260505061846 | 44 | 314 | 1.7 | 2.6 | 0.00 | 0.00 | 0.00 | 54 | 1000.0 |
| 20260505061344 | 44 | 258 | 2.6 | 5.2 | 0.00 | 0.00 | 0.00 | 54 | 1000.0 |
| 20260505060842 | 44 | 338 | 2.6 | 3.5 | 0.00 | 0.00 | 0.00 | 53 | 999.9 |
| 20260505060338 | 45 | 303 | 2.6 | 2.6 | 0.00 | 0.00 | 0.00 | 53 | 999.9 |
| 20260505055834 | 45 | 301 | 2.6 | 5.2 | 0.00 | 0.00 | 0.00 | 52 | 999.9 |
| 20260505055330 | 45 | 322 | 1.7 | 2.6 | 0.00 | 0.00 | 0.00 | 51 | 999.8 |
| 20260505054828 | 45 | 282 | 3.5 | 6.1 | 0.00 | 0.00 | 0.00 | 50 | 999.8 |
| 20260505054325 | 45 | 3 | 0.9 | 0.9 | 0.00 | 0.00 | 0.00 | 51 | 999.7 |
| 20260505053823 | 45 | 10 | 0.0 | 3.5 | 0.00 | 0.00 | 0.00 | 51 | 999.8 |
| 20260505053320 | 46 | 294 | 3.5 | 3.5 | 0.00 | 0.00 | 0.00 | 50 | 999.6 |
| 20260505052817 | 46 | 303 | 1.7 | 5.2 | 0.00 | 0.00 | 0.00 | 50 | 999.7 |
| 20260505052314 | 46 | 20 | 1.7 | 2.6 | 0.00 | 0.00 | 0.00 | 50 | 999.7 |
| 20260505051811 | 46 | 39 | 0.9 | 3.5 | 0.00 | 0.00 | 0.00 | 50 | 999.5 |
| 20260505051308 | 46 | 286 | 2.6 | 5.2 | 0.00 | 0.00 | 0.00 | 49 | 999.5 |
| 20260505050806 | 47 | 330 | 3.5 | 5.2 | 0.00 | 0.00 | 0.00 | 48 | 999.4 |
| 20260505050305 | 47 | 6 | 1.7 | 5.2 | 0.00 | 0.00 | 0.00 | 48 | 999.6 |
| 20260505041734 | 48 | 321 | 1.7 | 5.2 | 0.00 | 0.00 | 0.00 | 46 | 998.4 |
| 20260505041231 | 48 | 300 | 2.6 | 6.1 | 0.00 | 0.00 | 0.00 | 46 | 998.4 |
| 20260505040729 | 48 | 324 | 3.5 | 5.2 | 0.00 | 0.00 | 0.00 | 45 | 998.1 |
| 20260505040226 | 49 | 292 | 6.1 | 9.6 | 0.00 | 0.00 | 0.00 | 45 | 998.2 |
| 20260505035723 | 49 | 49 | 5.2 | 8.7 | 0.00 | 0.01 | 0.01 | 44 | 998.2 |
| 20260505035219 | 49 | 316 | 2.6 | 7.8 | 0.00 | 0.01 | 0.01 | 45 | 998.0 |
| 20260505034715 | 49 | 300 | 4.3 | 6.1 | 0.00 | 0.01 | 0.01 | 45 | 998.0 |
| 20260505034213 | 50 | 321 | 1.7 | 2.6 | 0.00 | 0.01 | 0.01 | 45 | 997.9 |
| 20260505033708 | 50 | 273 | 1.7 | 3.5 | 0.00 | 0.01 | 0.01 | 45 | 997.8 |
| 20260505033207 | 50 | 246 | 6.1 | 7.8 | 0.00 | 0.01 | 0.01 | 44 | 997.9 |
| 20260505032705 | 50 | 253 | 4.3 | 9.6 | 0.00 | 0.01 | 0.01 | 43 | 997.7 |
| 20260505032200 | 51 | 302 | 9.6 | 11.3 | 0.00 | 0.01 | 0.01 | 42 | 997.7 |
| 20260505031658 | 51 | 278 | 7.8 | 11.3 | 0.00 | 0.01 | 0.01 | 43 | 997.7 |
| 20260505031154 | 51 | 287 | 11.3 | 13.0 | 0.00 | 0.01 | 0.01 | 42 | 997.4 |
| 20260505030651 | 51 | 306 | 3.5 | 12.2 | 0.00 | 0.01 | 0.01 | 42 | 997.3 |
| 20260505030147 | 51 | 265 | 7.8 | 12.2 | 0.00 | 0.01 | 0.01 | 42 | 997.1 |
| 20260505025643 | 51 | 309 | 7.8 | 12.2 | 0.00 | 0.01 | 0.01 | 42 | 997.1 |
| 20260505025142 | 52 | 337 | 7.8 | 15.6 | 0.00 | 0.01 | 0.01 | 42 | 997.0 |
| 20260505024639 | 53 | 285 | 7.8 | 11.3 | 0.00 | 0.01 | 0.01 | 42 | 997.0 |
| 20260505024136 | 53 | 254 | 4.3 | 13.0 | 0.00 | 0.01 | 0.01 | 44 | 997.1 |
| 20260505023633 | 53 | 290 | 5.2 | 11.3 | 0.00 | 0.01 | 0.01 | 44 | 996.7 |
| 20260505023131 | 53 | 346 | 5.2 | 6.1 | 0.00 | 0.01 | 0.01 | 45 | 996.5 |
| 20260505022628 | 53 | 5 | 2.6 | 7.0 | 0.00 | 0.01 | 0.01 | 45 | 996.4 |
| 20260505022125 | 53 | 286 | 5.2 | 8.7 | 0.00 | 0.01 | 0.01 | 45 | 996.4 |
| 20260505021621 | 53 | 288 | 7.8 | 11.3 | 0.00 | 0.01 | 0.01 | 45 | 996.4 |
| 20260505021118 | 53 | 291 | 7.0 | 8.7 | 0.00 | 0.01 | 0.01 | 48 | 996.4 |
| 20260505020614 | 53 | 287 | 7.8 | 11.3 | 0.00 | 0.01 | 0.01 | 53 | 996.2 |
| 20260505020110 | 52 | 337 | 0.9 | 3.5 | 0.00 | 0.01 | 0.01 | 58 | 996.0 |
| 20260505015607 | 52 | 42 | 1.7 | 2.6 | 0.00 | 0.01 | 0.01 | 61 | 996.0 |
| 20260505015104 | 52 | 17 | 0.9 | 0.9 | 0.00 | 0.01 | 0.01 | 62 | 995.8 |
| 20260505014601 | 52 | 28 | 0.0 | 0.9 | 0.00 | 0.01 | 0.01 | 61 | 995.6 |
| 20260505014058 | 52 | 359 | 1.7 | 3.5 | 0.00 | 0.01 | 0.01 | 62 | 995.6 |
| 20260505013555 | 51 | 338 | 1.7 | 1.7 | 0.00 | 0.01 | 0.01 | 64 | 995.3 |
| 20260505013052 | 51 | 333 | 0.9 | 1.7 | 0.00 | 0.01 | 0.01 | 66 | 995.2 |
| 20260505012550 | 51 | 38 | 0.9 | 0.9 | 0.00 | 0.01 | 0.01 | 67 | 995.1 |
| 20260505012047 | 51 | 48 | 3.5 | 3.5 | 0.00 | 0.01 | 0.01 | 66 | 994.8 |
| 20260505011543 | 51 | 51 | 0.9 | 2.6 | 0.00 | 0.01 | 0.01 | 68 | 994.8 |
| 20260505011040 | 51 | 63 | 1.7 | 2.6 | 0.00 | 0.01 | 0.01 | 69 | 994.6 |
| 20260505010535 | 51 | 43 | 1.7 | 2.6 | 0.00 | 0.01 | 0.01 | 69 | 994.4 |
| 20260505010032 | 51 | 50 | 1.7 | 3.5 | 0.00 | 0.01 | 0.01 | 68 | 994.2 |
| 20260505005528 | 51 | 46 | 1.7 | 1.7 | 0.00 | 0.01 | 0.01 | 69 | 994.2 |
| 20260505005026 | 51 | 41 | 3.5 | 6.1 | 0.00 | 0.01 | 0.01 | 68 | 994.3 |
| 20260505004523 | 52 | 35 | 3.5 | 5.2 | 0.00 | 0.01 | 0.01 | 66 | 994.0 |
| 20260505004020 | 53 | 4 | 2.6 | 6.1 | 0.00 | 0.01 | 0.01 | 65 | 994.1 |
| 20260505003517 | 53 | 47 | 3.5 | 6.1 | 0.00 | 0.01 | 0.01 | 60 | 993.9 |
| 20260505003014 | 53 | 66 | 6.1 | 7.8 | 0.00 | 0.01 | 0.01 | 60 | 993.9 |
| 20260505002509 | 53 | 33 | 5.2 | 7.8 | 0.00 | 0.01 | 0.01 | 64 | 993.8 |
| 20260505002008 | 54 | 14 | 5.2 | 7.0 | 0.00 | 0.01 | 0.01 | 61 | 993.6 |
| 20260505001505 | 54 | 44 | 6.1 | 7.8 | 0.00 | 0.01 | 0.01 | 60 | 993.5 |
| 20260505001002 | 54 | 46 | 2.6 | 6.1 | 0.00 | 0.01 | 0.01 | 60 | 993.6 |
| 20260505000500 | 55 | 59 | 6.1 | 8.7 | 0.00 | 0.01 | 0.01 | 61 | 993.4 |
| 20260504235956 | 55 | 63 | 6.1 | 9.6 | 0.00 | 0.01 | 0.01 | 59 | 993.3 |
| 20260504235454 | 55 | 57 | 4.3 | 8.7 | 0.00 | 0.01 | 0.01 | 60 | 993.1 |
| 20260504234950 | 55 | 54 | 5.2 | 8.7 | 0.00 | 0.01 | 0.01 | 64 | 993.1 |
| 20260504234447 | 56 | 38 | 3.5 | 7.0 | 0.00 | 0.01 | 0.01 | 63 | 992.9 |
| 20260504233944 | 56 | 43 | 2.6 | 3.5 | 0.00 | 0.01 | 0.01 | 64 | 992.7 |
| 20260504233439 | 56 | 51 | 2.6 | 5.2 | 0.00 | 0.01 | 0.01 | 65 | 992.9 |
| 20260504232937 | 56 | 9 | 1.7 | 2.6 | 0.00 | 0.01 | 0.01 | 65 | 992.8 |
| 20260504232434 | 57 | 47 | 2.6 | 6.1 | 0.00 | 0.01 | 0.01 | 64 | 992.5 |
| 20260504231931 | 59 | 50 | 5.2 | 6.1 | 0.00 | 0.01 | 0.01 | 60 | 992.7 |
| 20260504231427 | 59 | 69 | 0.0 | 0.9 | 0.00 | 0.01 | 0.01 | 59 | 992.7 |
| 20260504230923 | 59 | 49 | 1.7 | 2.6 | 0.00 | 0.01 | 0.01 | 59 | 992.5 |
| 20260504230420 | 61 | 42 | 0.9 | 3.5 | 0.00 | 0.01 | 0.01 | 57 | 992.4 |
| 20260504225920 | 61 | 344 | 0.9 | 1.7 | 0.00 | 0.01 | 0.01 | 55 | 992.5 |
| 20260504225416 | 60 | 59 | 0.0 | 1.7 | 0.00 | 0.01 | 0.01 | 58 | 992.5 |
| 20260504224914 | 59 | 49 | 1.7 | 6.1 | 0.00 | 0.01 | 0.01 | 58 | 992.3 |
| 20260504224410 | 59 | 39 | 0.9 | 1.7 | 0.00 | 0.01 | 0.01 | 58 | 992.4 |
| 20260504223907 | 58 | 52 | 0.0 | 1.7 | 0.00 | 0.01 | 0.01 | 60 | 992.4 |
| 20260504223402 | 57 | 47 | 0.9 | 2.6 | 0.00 | 0.01 | 0.01 | 62 | 992.3 |
| 20260504222858 | 57 | 47 | 1.7 | 2.6 | 0.00 | 0.01 | 0.01 | 63 | 992.3 |
| 20260504222355 | 57 | 49 | 0.9 | 2.6 | 0.00 | 0.01 | 0.01 | 63 | 992.2 |
| 20260504221854 | 57 | 58 | 1.7 | 2.6 | 0.00 | 0.01 | 0.01 | 63 | 991.9 |
| 20260504221350 | 57 | 38 | 1.7 | 5.2 | 0.00 | 0.01 | 0.01 | 63 | 991.8 |
| 20260504220847 | 57 | 43 | 3.5 | 6.1 | 0.00 | 0.01 | 0.01 | 63 | 991.8 |
| 20260504220344 | 58 | 55 | 3.5 | 6.1 | 0.00 | 0.01 | 0.01 | 61 | 991.4 |
| 20260504215842 | 59 | 33 | 1.7 | 3.5 | 0.00 | 0.01 | 0.01 | 59 | 991.8 |
| 20260504215337 | 59 | 72 | 2.6 | 3.5 | 0.00 | 0.01 | 0.01 | 58 | 991.3 |
| 20260504214834 | 59 | 42 | 1.7 | 3.5 | 0.00 | 0.01 | 0.01 | 59 | 990.8 |
| 20260504214331 | 59 | 56 | 1.7 | 3.5 | 0.00 | 0.01 | 0.01 | 58 | 991.2 |
| 20260504213827 | 59 | 51 | 3.5 | 7.0 | 0.00 | 0.01 | 0.01 | 57 | 991.1 |
| 20260504213323 | 60 | 48 | 3.5 | 5.2 | 0.00 | 0.01 | 0.01 | 58 | 991.4 |
| 20260504212821 | 60 | 32 | 0.9 | 3.5 | 0.00 | 0.01 | 0.01 | 57 | 991.1 |
| 20260504212317 | 59 | 57 | 2.6 | 5.2 | 0.00 | 0.01 | 0.01 | 57 | 991.2 |
| 20260504211815 | 60 | 43 | 3.5 | 7.0 | 0.00 | 0.01 | 0.01 | 58 | 991.0 |
| 20260504211310 | 60 | 45 | 4.3 | 6.1 | 0.00 | 0.01 | 0.01 | 57 | 991.0 |
| 20260504210808 | 60 | 66 | 3.5 | 6.1 | 0.00 | 0.01 | 0.01 | 58 | 990.8 |
| 20260504210306 | 60 | 35 | 6.1 | 8.7 | 0.00 | 0.01 | 0.01 | 58 | 990.7 |
| 20260504205802 | 60 | 54 | 4.3 | 7.0 | 0.00 | 0.01 | 0.01 | 59 | 990.6 |
| 20260504205300 | 60 | 41 | 4.3 | 7.8 | 0.00 | 0.01 | 0.01 | 59 | 990.6 |
| 20260504204758 | 60 | 86 | 4.3 | 7.8 | 0.00 | 0.01 | 0.01 | 58 | 990.5 |
| 20260504204256 | 60 | 34 | 5.2 | 7.0 | 0.00 | 0.01 | 0.01 | 58 | 990.5 |
| 20260504203755 | 60 | 41 | 3.5 | 6.1 | 0.00 | 0.01 | 0.01 | 57 | 990.4 |
| 20260504203252 | 61 | 31 | 4.3 | 5.2 | 0.00 | 0.01 | 0.01 | 56 | 990.5 |
| 20260504202747 | 63 | 50 | 5.2 | 7.8 | 0.00 | 0.01 | 0.01 | 53 | 990.3 |
| 20260504202245 | 63 | 59 | 6.1 | 7.8 | 0.00 | 0.01 | 0.01 | 51 | 989.8 |
| 20260504201741 | 64 | 35 | 5.2 | 8.7 | 0.00 | 0.01 | 0.01 | 49 | 990.0 |
| 20260504201238 | 64 | 45 | 7.8 | 12.2 | 0.00 | 0.01 | 0.01 | 48 | 990.1 |
| 20260504200737 | 66 | 22 | 9.6 | 9.6 | 0.00 | 0.01 | 0.01 | 45 | 990.1 |
| 20260504200232 | 66 | 51 | 2.6 | 7.0 | 0.00 | 0.01 | 0.01 | 45 | 989.8 |
| 20260504195729 | 66 | 45 | 0.9 | 3.5 | 0.00 | 0.01 | 0.01 | 44 | 989.9 |
| 20260504195225 | 66 | 38 | 1.7 | 5.2 | 0.00 | 0.01 | 0.01 | 46 | 989.9 |
| 20260504194722 | 65 | 54 | 5.2 | 6.1 | 0.00 | 0.01 | 0.01 | 45 | 989.8 |
| 20260504194218 | 66 | 51 | 1.7 | 3.5 | 0.00 | 0.01 | 0.01 | 45 | 989.7 |
| 20260504193714 | 67 | 39 | 3.5 | 7.0 | 0.00 | 0.01 | 0.01 | 45 | 989.6 |
| 20260504193212 | 72 | 48 | 3.5 | 7.0 | 0.00 | 0.01 | 0.01 | 38 | 989.6 |
| 20260504192710 | 72 | 238 | 0.9 | 6.1 | 0.00 | 0.01 | 0.01 | 32 | 989.6 |
| 20260504192208 | 67 | 232 | 2.6 | 6.1 | 0.00 | 0.01 | 0.01 | 36 | 989.7 |
| 20260504191706 | 66 | 46 | 2.6 | 3.5 | 0.00 | 0.01 | 0.01 | 43 | 989.7 |
| 20260504191203 | 66 | 57 | 3.5 | 3.5 | 0.00 | 0.01 | 0.01 | 43 | 989.6 |
| 20260504190658 | 66 | 209 | 1.7 | 3.5 | 0.00 | 0.01 | 0.01 | 45 | 989.7 |
| 20260504190155 | 67 | 24 | 1.7 | 3.5 | 0.00 | 0.01 | 0.01 | 43 | 989.5 |
| 20260504185651 | 66 | 98 | 0.0 | 3.5 | 0.00 | 0.01 | 0.01 | 43 | 989.6 |
| 20260504185148 | 72 | 29 | 5.2 | 7.8 | 0.00 | 0.01 | 0.01 | 39 | 989.4 |
| 20260504184644 | 73 | 286 | 4.3 | 7.8 | 0.00 | 0.01 | 0.01 | 33 | 989.4 |
| 20260504184139 | 72 | 358 | 0.9 | 7.0 | 0.00 | 0.01 | 0.01 | 33 | 989.5 |
| 20260504183636 | 72 | 315 | 5.2 | 7.8 | 0.00 | 0.01 | 0.01 | 33 | 989.4 |
| 20260504183134 | 72 | 344 | 3.5 | 9.6 | 0.00 | 0.01 | 0.01 | 33 | 989.5 |
| 20260504182631 | 71 | 259 | 5.2 | 7.8 | 0.00 | 0.01 | 0.01 | 34 | 989.5 |
| 20260504182129 | 71 | 250 | 3.5 | 6.1 | 0.00 | 0.01 | 0.01 | 35 | 989.5 |
| 20260504181626 | 71 | 93 | 2.6 | 6.1 | 0.00 | 0.01 | 0.01 | 34 | 989.3 |
| 20260504181123 | 71 | 285 | 5.2 | 8.7 | 0.00 | 0.01 | 0.01 | 34 | 989.2 |
| 20260504180622 | 72 | 332 | 5.2 | 13.9 | 0.00 | 0.01 | 0.01 | 33 | 989.3 |
| 20260504180121 | 72 | 264 | 5.2 | 9.6 | 0.00 | 0.01 | 0.01 | 34 | 989.2 |
| 20260504175618 | 73 | 242 | 7.8 | 13.9 | 0.00 | 0.01 | 0.01 | 32 | 989.2 |
| 20260504175114 | 72 | 292 | 4.3 | 7.8 | 0.00 | 0.01 | 0.01 | 33 | 989.4 |
| 20260504174613 | 73 | 263 | 12.2 | 14.8 | 0.00 | 0.01 | 0.01 | 32 | 989.2 |
| 20260504174109 | 72 | 271 | 6.1 | 13.9 | 0.00 | 0.01 | 0.01 | 33 | 989.3 |
| 20260504173606 | 72 | 274 | 9.6 | 13.0 | 0.00 | 0.01 | 0.01 | 33 | 989.2 |
| 20260504173104 | 66 | 262 | 9.6 | 13.9 | 0.00 | 0.01 | 0.01 | 37 | 989.3 |
| 20260504172559 | 66 | 99 | 1.7 | 2.6 | 0.00 | 0.01 | 0.01 | 48 | 989.2 |
| 20260504172056 | 63 | 217 | 3.5 | 6.1 | 0.00 | 0.01 | 0.01 | 47 | 989.3 |
| 20260504171553 | 61 | 151 | 4.3 | 7.0 | 0.00 | 0.01 | 0.01 | 52 | 989.5 |
| 20260504171050 | 61 | 184 | 4.3 | 6.1 | 0.00 | 0.01 | 0.01 | 53 | 989.5 |
| 20260504170545 | 61 | 126 | 2.6 | 3.5 | 0.00 | 0.01 | 0.01 | 52 | 989.5 |